Time;durP1;ratioP1;P1;durP2;ratioP2;P2;SDS_P1;SDS_P2;PMS_P1;PMS_P2;Temp;Humidity;BMP_temperature;BMP_pressure;BME280_temperature;BME280_humidity;BME280_pressure;Samples;Min_cycle;Max_cycle;Signal;HPM_P1;HPM_P2
2023/07/26 00:02:21;;;;;;;20.83;15.38;;;;;;;12.32;100.00;96928.19;5063540;28;20040;-58
2023/07/26 00:04:47;;;;;;;18.05;13.32;;;;;;;12.28;100.00;96929.84;5062252;28;20145;-58
2023/07/26 00:07:14;;;;;;;17.70;12.88;;;;;;;12.32;100.00;96921.97;5062725;28;20052;-58
2023/07/26 00:09:40;;;;;;;19.40;14.32;;;;;;;12.27;100.00;96920.06;5062111;28;20094;-58
2023/07/26 00:12:07;;;;;;;19.67;13.70;;;;;;;12.21;100.00;96919.25;5064142;28;20646;-56
2023/07/26 00:14:34;;;;;;;17.88;12.82;;;;;;;12.24;100.00;96917.91;5062570;28;20596;-58
2023/07/26 00:17:00;;;;;;;18.83;12.70;;;;;;;12.19;100.00;96909.75;5062745;28;20047;-58
2023/07/26 00:19:27;;;;;;;17.02;11.82;;;;;;;12.26;100.00;96915.72;5062664;28;20037;-57
2023/07/26 00:21:53;;;;;;;19.23;12.60;;;;;;;12.21;100.00;96919.25;5062491;28;20090;-55
2023/07/26 00:24:20;;;;;;;13.65;10.90;;;;;;;12.18;100.00;96914.41;5062535;28;20123;-58
2023/07/26 00:26:46;;;;;;;16.27;10.88;;;;;;;12.17;100.00;96915.47;5062425;28;20037;-54
2023/07/26 00:29:13;;;;;;;17.13;10.63;;;;;;;12.25;100.00;96918.72;5063184;28;20115;-58
2023/07/26 00:31:41;;;;;;;16.58;11.07;;;;;;;12.22;100.00;96915.47;5063463;28;20045;-58
2023/07/26 00:34:07;;;;;;;16.00;11.05;;;;;;;12.20;100.00;96917.63;5061718;28;20044;-58
2023/07/26 00:36:34;;;;;;;15.10;9.82;;;;;;;12.21;100.00;96921.16;5062126;28;20045;-57
2023/07/26 00:39:03;;;;;;;15.65;9.38;;;;;;;12.14;100.00;96920.63;5061511;28;20040;-58
2023/07/26 00:41:29;;;;;;;13.90;10.38;;;;;;;12.15;100.00;96928.50;5064487;28;20055;-58
2023/07/26 00:43:56;;;;;;;15.70;9.82;;;;;;;12.10;100.00;96929.31;5061772;28;20536;-58
2023/07/26 00:46:25;;;;;;;13.73;9.88;;;;;;;12.06;100.00;96930.94;5063705;28;20140;-58
2023/07/26 00:48:53;;;;;;;13.80;9.85;;;;;;;12.15;100.00;96924.97;5061386;28;20292;-58
2023/07/26 00:51:21;;;;;;;15.27;9.60;;;;;;;12.03;100.00;96923.34;5062889;28;20044;-58
2023/07/26 00:53:48;;;;;;;14.48;9.88;;;;;;;12.02;100.00;96929.81;5059700;28;20048;-58
2023/07/26 00:56:15;;;;;;;12.73;8.32;;;;;;;12.01;100.00;96927.41;5063824;28;20560;-57
2023/07/26 00:58:44;;;;;;;11.63;7.75;;;;;;;11.97;100.00;96930.66;5063947;28;20040;-58
2023/07/26 01:01:11;;;;;;;11.77;7.88;;;;;;;11.91;100.00;96930.94;5067394;28;20044;-57
2023/07/26 01:03:37;;;;;;;10.40;7.47;;;;;;;11.92;100.00;96930.66;5066165;28;20102;-58
2023/07/26 01:06:13;;;;;;;10.30;7.53;;;;;;;11.88;100.00;96935.00;5064655;28;20075;-58
2023/07/26 01:08:56;;;;;;;10.70;7.50;;;;;;;11.84;100.00;96932.00;5063872;28;20041;-58
2023/07/26 01:11:48;;;;;;;11.70;7.57;;;;;;;11.80;100.00;96932.84;5064297;28;20664;-58
2023/07/26 01:14:23;;;;;;;11.18;7.10;;;;;;;11.79;100.00;96934.72;5062898;28;20526;-58
2023/07/26 01:16:51;;;;;;;13.00;6.97;;;;;;;11.77;100.00;96936.06;5055810;28;20051;-58
2023/07/26 01:19:17;;;;;;;9.80;6.90;;;;;;;11.77;100.00;96938.78;5064511;28;20060;-58
2023/07/26 01:21:44;;;;;;;11.10;7.05;;;;;;;11.76;100.00;96937.97;5064238;28;20041;-58
2023/07/26 01:24:10;;;;;;;10.93;7.00;;;;;;;11.71;100.00;96940.69;5062204;28;20032;-58
2023/07/26 01:26:38;;;;;;;9.18;7.82;;;;;;;11.63;100.00;96938.50;5065622;28;20044;-58
2023/07/26 01:29:05;;;;;;;12.70;7.00;;;;;;;11.64;100.00;96942.88;5065823;28;20033;-58
2023/07/26 01:31:32;;;;;;;9.60;6.93;;;;;;;11.61;100.00;96949.63;5066235;28;20094;-56
2023/07/26 01:34:01;;;;;;;8.93;5.95;;;;;;;11.63;100.00;96943.94;5063179;28;20044;-58
2023/07/26 01:36:29;;;;;;;10.00;5.85;;;;;;;11.55;100.00;96953.41;5065119;28;20090;-58
2023/07/26 01:38:57;;;;;;;10.30;6.57;;;;;;;11.53;100.00;96955.56;5064556;28;20041;-58
2023/07/26 01:41:25;;;;;;;9.43;5.35;;;;;;;11.51;100.00;96947.72;5065180;28;20060;-58
2023/07/26 01:43:52;;;;;;;7.53;4.95;;;;;;;11.50;100.00;96945.28;5064363;28;20036;-55
2023/07/26 01:46:18;;;;;;;6.85;4.45;;;;;;;11.52;100.00;96943.91;5060384;28;20040;-58
2023/07/26 01:48:45;;;;;;;5.72;3.65;;;;;;;11.45;100.00;96946.91;5064555;28;20471;-58
2023/07/26 01:51:12;;;;;;;7.25;3.58;;;;;;;11.47;100.00;96940.38;5064677;28;20045;-58
2023/07/26 01:53:38;;;;;;;6.95;3.22;;;;;;;11.44;100.00;96939.84;5062953;28;20495;-58
2023/07/26 01:56:05;;;;;;;5.55;2.75;;;;;;;11.48;100.00;96937.41;5064459;28;20059;-57
2023/07/26 01:58:32;;;;;;;4.57;3.15;;;;;;;11.53;100.00;96939.28;5063822;28;20131;-58
2023/07/26 02:01:00;;;;;;;5.75;2.97;;;;;;;11.47;100.00;96941.22;5063032;28;20064;-57
2023/07/26 02:03:26;;;;;;;5.35;3.00;;;;;;;11.42;100.00;96938.47;5062336;28;20040;-58
2023/07/26 02:05:53;;;;;;;5.85;3.70;;;;;;;11.43;100.00;96945.53;5062513;28;20218;-58
2023/07/26 02:08:19;;;;;;;6.88;3.63;;;;;;;11.43;100.00;96937.41;5063739;28;20101;-58
2023/07/26 02:10:47;;;;;;;5.28;3.20;;;;;;;11.45;100.00;96943.34;5060245;28;20052;-54
2023/07/26 02:13:13;;;;;;;7.57;3.53;;;;;;;11.43;100.00;96953.66;5064679;28;20075;-56
2023/07/26 02:15:40;;;;;;;4.43;2.97;;;;;;;11.44;100.00;96941.72;5063787;28;20043;-57
2023/07/26 02:18:06;;;;;;;4.80;3.38;;;;;;;11.42;100.00;96943.88;5063418;28;20059;-57
2023/07/26 02:20:33;;;;;;;5.72;2.90;;;;;;;11.40;100.00;96954.19;5063086;28;20043;-57
2023/07/26 02:23:00;;;;;;;5.80;3.35;;;;;;;11.41;100.00;96947.69;5062623;28;20848;-57
2023/07/26 02:25:27;;;;;;;5.50;2.80;;;;;;;11.25;100.00;96947.66;5064130;28;20549;-55
2023/07/26 02:27:57;;;;;;;4.88;3.38;;;;;;;11.16;100.00;96951.94;5063256;28;20044;-58
2023/07/26 02:30:23;;;;;;;5.95;3.40;;;;;;;11.16;100.00;96960.06;5063036;28;20071;-58
2023/07/26 02:32:50;;;;;;;4.95;3.45;;;;;;;11.03;100.00;96959.50;5061455;28;20048;-58
2023/07/26 02:35:17;;;;;;;6.10;3.60;;;;;;;10.97;100.00;96968.69;5061880;28;20053;-58
2023/07/26 02:37:43;;;;;;;7.63;3.78;;;;;;;10.91;100.00;96975.19;5063792;28;20068;-58
2023/07/26 02:40:11;;;;;;;5.70;3.60;;;;;;;10.88;100.00;96979.19;5063179;28;20040;-58
2023/07/26 02:42:37;;;;;;;6.35;3.83;;;;;;;10.83;100.00;96979.19;5067037;28;20055;-58
2023/07/26 02:45:05;;;;;;;8.25;3.33;;;;;;;10.79;100.00;96983.50;5062828;28;20041;-58
2023/07/26 02:47:32;;;;;;;7.22;3.80;;;;;;;10.73;100.00;96988.06;5064636;28;20056;-58
2023/07/26 02:50:04;;;;;;;6.63;4.03;;;;;;;10.73;100.00;96979.94;5062256;28;20036;-58
2023/07/26 02:52:32;;;;;;;5.30;3.80;;;;;;;10.69;100.00;96984.25;5062431;28;20059;-57
2023/07/26 02:54:59;;;;;;;7.80;3.65;;;;;;;10.72;100.00;96986.44;5063090;28;20654;-58
2023/07/26 02:57:27;;;;;;;9.38;3.90;;;;;;;10.71;100.00;96989.41;5062602;28;20055;-56
2023/07/26 02:59:54;;;;;;;5.13;3.58;;;;;;;10.64;100.00;96986.94;5062505;28;20037;-58
2023/07/26 03:02:20;;;;;;;6.55;3.47;;;;;;;10.55;100.00;96986.63;5061930;28;20059;-57
2023/07/26 03:04:47;;;;;;;8.55;4.10;;;;;;;10.50;100.00;96992.81;5062255;28;20080;-56
2023/07/26 03:07:14;;;;;;;7.78;4.10;;;;;;;10.46;100.00;97002.53;5063934;28;20115;-58
2023/07/26 03:09:40;;;;;;;6.88;4.07;;;;;;;10.43;100.00;96994.88;5058805;28;20659;-59
2023/07/26 03:12:07;;;;;;;7.75;4.32;;;;;;;10.36;100.00;97007.84;5063634;28;20050;-58
2023/07/26 03:14:36;;;;;;;5.95;4.18;;;;;;;10.30;100.00;97011.56;5062508;28;20041;-58
2023/07/26 03:17:03;;;;;;;8.15;4.65;;;;;;;10.24;100.00;97019.66;5061621;28;20116;-58
2023/07/26 03:19:47;;;;;;;5.55;4.22;;;;;;;10.25;100.00;97023.19;5061957;28;20032;-58
2023/07/26 03:22:13;;;;;;;7.88;5.35;;;;;;;10.24;100.00;97029.66;5065386;28;20054;-58
2023/07/26 03:24:40;;;;;;;8.95;5.00;;;;;;;10.23;100.00;97030.75;5062245;28;20564;-57
2023/07/26 03:27:07;;;;;;;8.75;5.45;;;;;;;10.22;100.00;97035.34;5060137;28;20463;-58
2023/07/26 03:29:34;;;;;;;8.63;5.80;;;;;;;10.21;100.00;97032.91;5062531;28;20048;-57
2023/07/26 03:32:00;;;;;;;8.43;5.60;;;;;;;10.22;100.00;97031.81;5061727;28;20072;-58
2023/07/26 03:34:27;;;;;;;8.38;5.85;;;;;;;10.22;100.00;97032.66;5061883;28;20074;-58
2023/07/26 03:36:53;;;;;;;10.80;5.40;;;;;;;10.30;100.00;97038.63;5062450;28;21555;-58
2023/07/26 03:39:20;;;;;;;8.90;5.47;;;;;;;10.24;100.00;97033.19;5059201;28;20488;-56
2023/07/26 03:41:47;;;;;;;7.13;5.75;;;;;;;10.18;100.00;97036.94;5062320;28;20067;-58
2023/07/26 03:44:13;;;;;;;10.57;5.13;;;;;;;10.18;100.00;97034.22;5059982;28;20040;-58
2023/07/26 03:46:40;;;;;;;8.85;6.35;;;;;;;10.17;100.00;97040.69;5062623;28;20119;-58
2023/07/26 03:49:06;;;;;;;9.65;5.85;;;;;;;10.14;100.00;97043.94;5071265;28;20968;-58
2023/07/26 03:51:33;;;;;;;8.35;5.55;;;;;;;10.23;100.00;97047.81;5062333;28;20040;-58
2023/07/26 03:53:59;;;;;;;10.95;5.88;;;;;;;10.24;100.00;97045.88;5060678;28;20043;-57
2023/07/26 03:56:29;;;;;;;9.70;5.75;;;;;;;10.25;100.00;97053.75;5060935;28;20721;-57
2023/07/26 03:58:56;;;;;;;8.60;5.50;;;;;;;10.34;100.00;97047.88;5060329;28;20048;-56
2023/07/26 04:01:22;;;;;;;8.52;6.10;;;;;;;10.33;100.00;97049.78;5060721;28;20040;-57
2023/07/26 04:03:49;;;;;;;6.55;5.47;;;;;;;10.29;100.00;97045.97;5057208;28;20121;-56
2023/07/26 04:06:16;;;;;;;9.15;5.50;;;;;;;10.33;100.00;97043.53;5060097;28;20536;-58
2023/07/26 04:08:42;;;;;;;9.70;6.45;;;;;;;10.33;100.00;97048.94;5060005;28;20123;-57
2023/07/26 04:11:11;;;;;;;9.93;5.55;;;;;;;10.34;100.00;97039.75;5061055;28;20041;-58
2023/07/26 04:13:37;;;;;;;8.02;5.85;;;;;;;10.36;100.00;97048.44;5059518;28;20817;-58
2023/07/26 04:16:18;;;;;;;11.77;7.38;;;;;;;10.34;100.00;97048.69;5060137;28;20453;-57
2023/07/26 04:18:45;;;;;;;10.80;7.68;;;;;;;10.38;100.00;97043.56;5059556;28;20040;-57
2023/07/26 04:21:14;;;;;;;11.20;7.03;;;;;;;10.40;100.00;97042.22;5061508;28;20658;-57
2023/07/26 04:23:41;;;;;;;11.10;7.82;;;;;;;10.52;100.00;97050.22;5062416;28;20044;-58
2023/07/26 04:26:09;;;;;;;13.93;8.43;;;;;;;10.61;100.00;97050.53;5061433;28;20040;-56
2023/07/26 04:28:35;;;;;;;11.27;8.27;;;;;;;10.70;100.00;97037.34;5061540;28;20048;-58
2023/07/26 04:31:03;;;;;;;10.70;8.02;;;;;;;10.77;100.00;97042.53;5062506;28;20847;-57
2023/07/26 04:33:30;;;;;;;10.45;7.80;;;;;;;10.86;100.00;97051.78;5061464;28;20109;-54
2023/07/26 04:35:57;;;;;;;9.35;7.15;;;;;;;10.88;100.00;97049.63;5061020;28;20074;-56
2023/07/26 04:38:27;;;;;;;13.05;7.65;;;;;;;10.97;100.00;97047.25;5059616;28;20121;-57
2023/07/26 04:40:53;;;;;;;10.98;7.28;;;;;;;11.01;100.00;97047.53;5058322;28;20587;-56
2023/07/26 04:43:20;;;;;;;8.82;7.40;;;;;;;11.03;100.00;97053.50;5057576;28;20045;-56
2023/07/26 04:45:50;;;;;;;10.88;7.75;;;;;;;11.09;100.00;97055.16;5056157;28;20055;-55
2023/07/26 04:48:18;;;;;;;9.35;7.15;;;;;;;11.14;100.00;97059.81;5061047;28;20063;-56
2023/07/26 04:50:46;;;;;;;9.50;6.72;;;;;;;11.15;100.00;97056.00;5058912;28;20052;-56
2023/07/26 04:53:12;;;;;;;10.60;6.88;;;;;;;11.22;100.00;97053.88;5060258;28;20045;-58
2023/07/26 04:55:40;;;;;;;10.10;7.20;;;;;;;11.31;100.00;97057.72;5059533;28;20776;-58
2023/07/26 04:58:07;;;;;;;11.07;6.65;;;;;;;11.39;100.00;97059.09;5060576;28;20048;-57
2023/07/26 05:00:33;;;;;;;9.02;5.70;;;;;;;11.43;100.00;97051.25;5060733;28;20055;-58
2023/07/26 05:03:00;;;;;;;9.50;6.50;;;;;;;11.44;100.00;97061.00;5062142;28;20733;-58
2023/07/26 05:05:27;;;;;;;8.88;6.40;;;;;;;11.48;100.00;97059.41;5060481;28;20044;-58
2023/07/26 05:07:53;;;;;;;10.57;5.60;;;;;;;11.49;100.00;97058.31;5059478;28;20074;-58
2023/07/26 05:10:20;;;;;;;8.73;6.20;;;;;;;11.49;100.00;97058.31;5058962;28;20411;-56
2023/07/26 05:12:47;;;;;;;8.50;5.60;;;;;;;11.52;100.00;97065.09;5059775;28;20052;-58
2023/07/26 05:15:13;;;;;;;8.57;6.10;;;;;;;11.56;100.00;97069.75;5059786;28;20037;-56
2023/07/26 05:17:40;;;;;;;10.40;5.35;;;;;;;11.52;100.00;97070.53;5059820;28;20040;-57
2023/07/26 05:20:07;;;;;;;7.72;5.40;;;;;;;11.50;100.00;97080.84;5059451;28;20671;-58
2023/07/26 05:22:33;;;;;;;7.72;5.03;;;;;;;11.49;100.00;97066.44;5057326;28;20042;-57
2023/07/26 05:25:00;;;;;;;8.98;6.07;;;;;;;11.53;100.00;97072.97;5058809;28;20049;-56
2023/07/26 05:27:26;;;;;;;7.88;5.68;;;;;;;11.61;100.00;97065.41;5060449;28;20067;-58
2023/07/26 05:29:53;;;;;;;6.95;4.85;;;;;;;11.68;100.00;97071.38;5059056;28;20680;-58
2023/07/26 05:32:20;;;;;;;9.23;5.50;;;;;;;11.65;100.00;97075.44;5058309;28;20053;-55
2023/07/26 05:34:46;;;;;;;6.38;4.65;;;;;;;11.67;100.00;97081.44;5057803;28;20040;-58
2023/07/26 05:37:13;;;;;;;9.05;4.30;;;;;;;11.75;100.00;97082.81;5059667;28;20650;-57
2023/07/26 05:39:39;;;;;;;5.82;4.55;;;;;;;11.89;100.00;97087.72;5057866;28;20459;-57
2023/07/26 05:42:06;;;;;;;8.50;4.38;;;;;;;11.95;100.00;97087.47;5059265;28;20043;-57
2023/07/26 05:44:32;;;;;;;9.93;5.25;;;;;;;12.00;100.00;97092.09;5059108;28;20454;-53
2023/07/26 05:46:59;;;;;;;8.30;4.85;;;;;;;12.04;100.00;97084.22;5062667;28;20036;-54
2023/07/26 05:49:26;;;;;;;7.53;4.25;;;;;;;12.12;100.00;97085.66;5063773;28;20060;-57
2023/07/26 05:51:52;;;;;;;13.00;7.18;;;;;;;12.22;100.00;97083.75;5063189;28;20491;-57
2023/07/26 05:54:18;;;;;;;8.98;4.90;;;;;;;12.31;100.00;97086.75;5065022;28;20048;-58
2023/07/26 05:56:45;;;;;;;7.90;4.35;;;;;;;12.36;100.00;97085.94;5064364;28;20040;-58
2023/07/26 05:59:11;;;;;;;7.75;4.68;;;;;;;12.41;100.00;97085.09;5065073;28;20041;-57
2023/07/26 06:01:38;;;;;;;7.18;4.25;;;;;;;12.52;100.00;97088.63;5063235;28;20036;-57
2023/07/26 06:04:04;;;;;;;5.65;4.10;;;;;;;12.56;100.00;97097.88;5064588;28;20137;-57
2023/07/26 06:06:31;;;;;;;8.32;4.10;;;;;;;12.59;100.00;97097.34;5064001;28;20142;-57
2023/07/26 06:08:58;;;;;;;8.65;4.53;;;;;;;12.64;100.00;97093.81;5064020;28;20044;-57
2023/07/26 06:11:24;;;;;;;7.10;3.78;;;;;;;12.67;100.00;97098.69;5065117;28;20052;-58
2023/07/26 06:13:51;;;;;;;5.85;3.67;;;;;;;12.70;100.00;97095.44;5063843;28;20039;-58
2023/07/26 06:16:18;;;;;;;5.82;3.53;;;;;;;12.72;100.00;97098.72;5062203;28;20036;-58
2023/07/26 06:18:45;;;;;;;6.68;3.53;;;;;;;12.74;100.00;97104.66;5064254;28;20090;-58
2023/07/26 06:21:11;;;;;;;4.28;3.15;;;;;;;12.68;100.00;97105.78;5063879;28;20572;-56
2023/07/26 06:23:38;;;;;;;7.75;3.53;;;;;;;12.65;100.00;97098.16;5061889;28;20127;-58
2023/07/26 06:26:04;;;;;;;7.72;3.58;;;;;;;12.60;100.00;97102.50;5064264;28;21664;-56
2023/07/26 06:28:31;;;;;;;8.77;4.05;;;;;;;12.57;100.00;97105.75;5064954;28;20510;-57
2023/07/26 06:30:58;;;;;;;13.05;4.85;;;;;;;12.54;100.00;97106.31;5064255;28;20079;-58
2023/07/26 06:33:25;;;;;;;6.47;3.97;;;;;;;12.45;100.00;97114.19;5064905;28;20044;-58
2023/07/26 06:35:55;;;;;;;8.32;4.47;;;;;;;12.45;100.00;97113.34;5061770;28;20106;-58
2023/07/26 06:38:22;;;;;;;7.90;4.20;;;;;;;12.38;100.00;97107.38;5064966;28;20041;-58
2023/07/26 06:40:48;;;;;;;10.35;5.47;;;;;;;12.21;100.00;97120.09;5063556;28;20090;-56
2023/07/26 06:43:15;;;;;;;5.45;4.28;;;;;;;12.15;100.00;97129.34;5064707;28;20102;-56
2023/07/26 06:45:50;;;;;;;5.93;4.30;;;;;;;12.19;100.00;97135.03;5061119;28;20085;-56
2023/07/26 06:48:17;;;;;;;7.80;5.43;;;;;;;12.19;100.00;97144.00;5060859;28;20049;-58
2023/07/26 06:50:43;;;;;;;9.77;5.28;;;;;;;12.26;100.00;97145.63;5060096;28;20405;-56
2023/07/26 06:53:10;;;;;;;8.65;5.10;;;;;;;12.14;100.00;97151.31;5062340;28;20564;-57
2023/07/26 06:55:37;;;;;;;6.57;4.85;;;;;;;12.10;100.00;97151.03;5063404;28;20052;-58
2023/07/26 06:58:04;;;;;;;8.32;4.90;;;;;;;12.15;100.00;97151.06;5061410;28;20530;-56
2023/07/26 07:00:31;;;;;;;6.85;4.70;;;;;;;12.06;100.00;97145.31;5061507;28;20553;-57
2023/07/26 07:03:00;;;;;;;6.97;5.10;;;;;;;12.09;100.00;97149.41;5065000;28;20036;-58
2023/07/26 07:05:33;;;;;;;8.82;5.55;;;;;;;12.11;100.00;97149.94;5061058;28;20941;-56
2023/07/26 07:07:59;;;;;;;7.13;5.20;;;;;;;12.07;100.00;97143.44;5061266;28;20109;-58
2023/07/26 07:10:26;;;;;;;9.73;4.93;;;;;;;12.07;100.00;97141.53;5060448;28;20040;-58
2023/07/26 07:12:52;;;;;;;6.72;5.18;;;;;;;12.06;100.00;97139.88;5063064;28;20071;-56
2023/07/26 07:15:19;;;;;;;6.90;4.75;;;;;;;12.20;100.00;97131.25;5063002;28;20056;-58
2023/07/26 07:17:45;;;;;;;8.75;5.65;;;;;;;12.15;100.00;97133.94;5062299;28;20041;-58
2023/07/26 07:20:15;;;;;;;6.40;4.68;;;;;;;12.17;100.00;97135.28;5061018;28;20167;-58
2023/07/26 07:22:42;;;;;;;5.97;3.92;;;;;;;12.19;100.00;97145.88;5060764;28;20097;-58
2023/07/26 07:25:09;;;;;;;8.00;4.78;;;;;;;12.19;100.00;97144.00;5060827;28;20048;-57
2023/07/26 07:27:35;;;;;;;8.15;5.20;;;;;;;12.28;100.00;97149.72;5060891;28;20051;-58
2023/07/26 07:30:03;;;;;;;9.93;5.10;;;;;;;12.33;100.00;97151.63;5060842;28;20126;-58
2023/07/26 07:32:29;;;;;;;5.57;4.40;;;;;;;12.32;100.00;97155.44;5060572;28;20052;-56
2023/07/26 07:34:56;;;;;;;5.95;4.05;;;;;;;12.28;100.00;97155.16;5061653;28;20036;-58
2023/07/26 07:37:24;;;;;;;6.40;4.72;;;;;;;12.43;100.00;97164.41;5057976;28;20045;-58
2023/07/26 07:39:50;;;;;;;6.00;4.25;;;;;;;12.54;100.00;97162.53;5059659;28;20034;-57
2023/07/26 07:42:17;;;;;;;6.75;4.47;;;;;;;12.60;100.00;97156.81;5059463;28;20780;-56
2023/07/26 07:44:43;;;;;;;7.28;4.18;;;;;;;12.68;100.00;97157.38;5060444;28;20040;-58
2023/07/26 07:47:10;;;;;;;8.05;4.18;;;;;;;12.59;100.00;97159.81;5061022;28;20048;-58
2023/07/26 07:49:40;;;;;;;5.17;4.00;;;;;;;12.69;100.00;97148.13;5060100;28;20044;-56
2023/07/26 07:52:07;;;;;;;6.25;4.50;;;;;;;12.83;100.00;97153.84;5061347;28;20314;-58
2023/07/26 07:54:34;;;;;;;6.13;4.10;;;;;;;12.96;100.00;97147.84;5060276;28;20137;-58
2023/07/26 07:57:00;;;;;;;7.38;4.47;;;;;;;13.04;100.00;97149.19;5059524;28;20045;-58
2023/07/26 07:59:27;;;;;;;6.60;4.25;;;;;;;13.13;100.00;97154.91;5060945;28;20582;-58
2023/07/26 08:01:53;;;;;;;5.95;4.07;;;;;;;13.31;100.00;97149.97;5060161;28;20039;-58
2023/07/26 08:04:20;;;;;;;5.88;3.78;;;;;;;13.48;100.00;97141.53;5060278;28;20044;-57
2023/07/26 08:06:47;;;;;;;4.90;3.47;;;;;;;13.55;100.00;97152.94;5059848;28;20055;-58
2023/07/26 08:09:14;;;;;;;5.30;3.10;;;;;;;13.47;100.00;97151.59;5060758;28;20052;-58
2023/07/26 08:11:40;;;;;;;4.72;2.95;;;;;;;13.40;100.00;97151.03;5060001;28;20747;-56
2023/07/26 08:14:07;;;;;;;3.83;2.50;;;;;;;13.35;100.00;97149.16;5060933;28;20048;-57
2023/07/26 08:16:34;;;;;;;4.20;2.28;;;;;;;13.32;100.00;97163.31;5060239;28;20036;-57
2023/07/26 08:19:03;;;;;;;3.55;2.15;;;;;;;13.53;98.01;97157.84;5063410;28;20047;-56
2023/07/26 08:21:29;;;;;;;6.63;2.65;;;;;;;13.70;95.33;97148.53;5060359;28;20048;-58
2023/07/26 08:23:56;;;;;;;3.70;2.10;;;;;;;13.88;95.06;97149.81;5060486;28;20040;-57
2023/07/26 08:26:23;;;;;;;3.88;2.28;;;;;;;14.02;93.89;97139.97;5061677;28;20772;-56
2023/07/26 08:28:49;;;;;;;5.30;1.98;;;;;;;14.27;93.79;97145.56;5059410;28;20066;-58
2023/07/26 08:31:16;;;;;;;5.45;1.80;;;;;;;14.31;94.79;97143.91;5064502;28;20045;-58
2023/07/26 08:33:43;;;;;;;4.10;2.17;;;;;;;14.36;93.78;97151.19;5061180;28;20539;-58
2023/07/26 08:36:09;;;;;;;3.22;1.88;;;;;;;14.42;96.68;97152.81;5060976;28;20045;-55
2023/07/26 08:38:36;;;;;;;2.83;1.80;;;;;;;14.49;92.45;97153.28;5060104;28;20060;-58
2023/07/26 08:41:03;;;;;;;2.83;1.80;;;;;;;14.12;94.73;97146.44;5059883;28;20052;-58
2023/07/26 08:43:37;;;;;;;3.92;1.60;;;;;;;13.88;95.82;97145.19;5059684;28;20674;-57
2023/07/26 08:46:06;;;;;;;4.18;1.50;;;;;;;13.86;94.97;97152.81;5060995;28;20036;-58
2023/07/26 08:48:32;;;;;;;3.63;1.95;;;;;;;14.01;93.58;97138.31;5060478;28;20055;-59
2023/07/26 08:51:00;;;;;;;3.20;1.45;;;;;;;14.01;95.49;97142.97;5059797;28;20068;-58
2023/07/26 08:53:28;;;;;;;3.08;1.50;;;;;;;13.86;93.68;97144.66;5058065;28;20516;-57
2023/07/26 08:55:54;;;;;;;3.30;1.77;;;;;;;13.86;94.80;97141.94;5060183;28;20690;-57
2023/07/26 08:58:21;;;;;;;3.35;1.50;;;;;;;14.01;94.91;97151.13;5060414;28;20052;-58
2023/07/26 09:00:48;;;;;;;5.55;1.58;;;;;;;14.12;93.53;97152.69;5060553;28;20052;-57
2023/07/26 09:03:16;;;;;;;3.30;1.60;;;;;;;14.29;93.74;97154.25;5059806;28;20044;-57
2023/07/26 09:05:44;;;;;;;4.13;1.60;;;;;;;14.18;92.76;97145.31;5059464;28;20127;-58
2023/07/26 09:08:11;;;;;;;2.72;1.60;;;;;;;14.32;90.95;97148.22;5059924;28;20045;-58
2023/07/26 09:10:40;;;;;;;4.63;2.50;;;;;;;14.26;90.83;97152.91;5057476;28;20051;-55
2023/07/26 09:13:08;;;;;;;3.28;1.45;;;;;;;14.22;88.71;97149.09;5059166;28;20040;-57
2023/07/26 09:15:37;;;;;;;4.13;1.40;;;;;;;14.25;89.58;97154.00;5060278;28;20455;-56
2023/07/26 09:18:08;;;;;;;4.57;1.50;;;;;;;14.11;91.32;97151.06;5058711;28;20055;-57
2023/07/26 09:20:36;;;;;;;2.85;1.58;;;;;;;13.84;90.57;97146.03;5063548;28;20457;-54
2023/07/26 09:23:06;;;;;;;5.18;1.25;;;;;;;13.92;89.06;97153.63;5064029;28;20044;-55
2023/07/26 09:25:34;;;;;;;2.78;1.45;;;;;;;13.69;91.00;97158.63;5063570;28;20047;-56
2023/07/26 09:28:02;;;;;;;2.90;1.10;;;;;;;13.78;92.55;97151.50;5063208;28;20036;-57
2023/07/26 09:30:29;;;;;;;1.75;1.20;;;;;;;13.78;94.54;97156.94;5064378;28;20044;-57
2023/07/26 09:32:56;;;;;;;2.92;1.35;;;;;;;13.86;95.94;97152.81;5062319;28;20111;-55
2023/07/26 09:35:23;;;;;;;4.78;1.73;;;;;;;13.72;96.32;97146.34;5064303;28;20044;-55
2023/07/26 09:37:49;;;;;;;1.88;1.10;;;;;;;13.83;94.39;97149.84;5063418;28;20047;-56
2023/07/26 09:40:32;;;;;;;1.85;1.00;;;;;;;13.96;95.32;97148.44;5063686;28;20047;-53
2023/07/26 09:43:04;;;;;;;4.55;1.33;;;;;;;13.70;95.49;97148.53;5061708;28;20059;-56
2023/07/26 09:45:30;;;;;;;2.05;1.25;;;;;;;13.51;98.10;97160.84;5062358;28;20053;-54
2023/07/26 09:48:08;;;;;;;3.53;1.92;;;;;;;13.45;100.00;97164.63;5063032;28;20044;-57
2023/07/26 09:50:49;;;;;;;2.70;1.42;;;;;;;13.32;99.86;97174.19;5061090;28;20553;-56
2023/07/26 09:53:21;;;;;;;4.72;1.30;;;;;;;13.23;98.69;97164.97;5062627;28;20047;-55
2023/07/26 09:55:48;;;;;;;2.83;1.50;;;;;;;13.18;99.89;97164.94;5062343;28;20040;-56
2023/07/26 09:58:20;;;;;;;3.05;1.65;;;;;;;13.29;100.00;97166.56;5065820;28;20029;-55
2023/07/26 10:00:48;;;;;;;4.40;1.58;;;;;;;13.26;98.43;97165.22;5064574;28;20055;-56
2023/07/26 10:03:19;;;;;;;3.33;1.88;;;;;;;13.56;99.89;97156.47;5062316;28;20123;-57
2023/07/26 10:05:48;;;;;;;1.80;1.10;;;;;;;13.90;98.95;97155.81;5061977;28;20044;-56
2023/07/26 10:08:15;;;;;;;3.47;1.50;;;;;;;13.96;93.25;97151.97;5062732;28;20496;-57
2023/07/26 10:10:42;;;;;;;2.20;1.33;;;;;;;14.06;92.14;97156.56;5062926;28;20055;-57
2023/07/26 10:13:10;;;;;;;3.58;1.40;;;;;;;14.46;91.66;97150.31;5061913;28;20090;-57
2023/07/26 10:15:41;;;;;;;3.55;1.75;;;;;;;14.75;87.28;97152.31;5062397;28;20064;-57
2023/07/26 10:18:08;;;;;;;4.50;1.42;;;;;;;14.91;89.05;97153.84;5063145;28;20112;-58
2023/07/26 10:20:39;;;;;;;2.20;1.10;;;;;;;14.73;87.08;97151.75;5063387;28;20051;-55
2023/07/26 10:23:10;;;;;;;4.65;1.70;;;;;;;14.65;87.28;97158.63;5062447;28;20032;-54
2023/07/26 10:25:40;;;;;;;3.75;2.08;;;;;;;14.71;88.05;97165.69;5063375;28;20121;-56
2023/07/26 10:28:08;;;;;;;5.97;2.30;;;;;;;14.67;85.48;97159.97;5062832;28;20036;-57
2023/07/26 10:30:35;;;;;;;3.85;2.00;;;;;;;15.11;85.77;97164.84;5062603;28;20048;-55
2023/07/26 10:33:01;;;;;;;3.28;1.80;;;;;;;15.27;83.82;97155.44;5062372;28;20043;-55
2023/07/26 10:35:33;;;;;;;3.35;2.00;;;;;;;15.13;86.53;97163.47;5061218;28;20056;-56
2023/07/26 10:38:03;;;;;;;5.68;2.58;;;;;;;15.34;89.31;97168.72;5061418;28;21126;-55
2023/07/26 10:40:32;;;;;;;4.18;2.05;;;;;;;14.95;83.88;97165.78;5063174;28;20094;-55
2023/07/26 10:43:14;;;;;;;4.32;1.80;;;;;;;15.13;85.38;97160.72;5061317;28;20040;-57
2023/07/26 10:45:45;;;;;;;8.02;2.33;;;;;;;15.23;80.90;97150.81;5059179;28;20052;-56
2023/07/26 10:48:13;;;;;;;4.18;1.77;;;;;;;15.28;81.75;97150.75;5062000;28;20046;-57
2023/07/26 10:50:41;;;;;;;7.53;2.13;;;;;;;15.14;83.59;97153.38;5064174;28;20055;-54
2023/07/26 10:53:29;;;;;;;4.18;1.88;;;;;;;15.14;81.21;97156.91;5061613;28;20119;-57
2023/07/26 10:56:32;;;;;;;3.17;1.75;;;;;;;15.62;79.16;97171.69;5063138;28;20049;-58
2023/07/26 10:59:04;;;;;;;5.82;1.83;;;;;;;16.02;75.56;97152.41;5061704;28;20088;-57
2023/07/26 11:01:37;;;;;;;6.30;1.92;;;;;;;16.43;76.74;97144.78;5058641;28;20475;-56
2023/07/26 11:04:11;;;;;;;4.72;1.70;;;;;;;16.37;74.24;97147.56;5062066;28;20048;-54
2023/07/26 11:06:48;;;;;;;3.80;1.63;;;;;;;16.35;72.29;97140.75;5063412;28;20039;-57
2023/07/26 11:09:26;;;;;;;5.43;2.10;;;;;;;16.46;73.68;97139.50;5061144;28;20125;-57
2023/07/26 11:11:53;;;;;;;4.35;1.70;;;;;;;16.06;70.59;97150.72;5060043;28;20042;-59
2023/07/26 11:14:20;;;;;;;4.85;1.90;;;;;;;16.11;69.68;97139.72;5061623;28;20059;-56
2023/07/26 11:16:54;;;;;;;3.42;1.75;;;;;;;16.11;71.08;97136.19;5062167;28;20044;-56
2023/07/26 11:19:24;;;;;;;4.55;2.15;;;;;;;16.21;70.40;97133.31;5041776;28;20049;-56
2023/07/26 11:21:51;;;;;;;4.53;1.80;;;;;;;16.22;69.46;97134.94;5060588;28;20705;-56
2023/07/26 11:24:26;;;;;;;9.85;2.00;;;;;;;16.55;69.62;97136.13;5059253;28;20056;-58
2023/07/26 11:26:52;;;;;;;4.03;1.75;;;;;;;16.85;68.08;97134.00;5061923;28;20098;-58
2023/07/26 11:29:20;;;;;;;5.07;1.58;;;;;;;17.03;65.67;97135.06;5061380;28;20044;-58